createdAt,value
2017-12-25T00:01:23.548Z,101012
2017-12-25T00:03:52.684Z,101010
2017-12-25T00:06:21.857Z,101003
2017-12-25T00:08:51.060Z,101013
2017-12-25T00:11:20.213Z,101008
2017-12-25T00:13:50.130Z,101009
2017-12-25T00:16:19.303Z,101015
2017-12-25T00:18:48.521Z,101006
2017-12-25T00:21:17.636Z,101010
2017-12-25T00:23:47.784Z,101013
2017-12-25T00:26:17.214Z,101015
2017-12-25T00:28:47.094Z,101008
2017-12-25T00:31:17.383Z,101021
2017-12-25T00:33:46.602Z,101011
2017-12-25T00:36:15.812Z,101009
2017-12-25T00:38:45.981Z,101008
2017-12-25T00:41:15.192Z,100990
2017-12-25T00:43:44.390Z,100996
2017-12-25T00:46:14.299Z,100994
2017-12-25T00:48:43.465Z,100996
2017-12-25T00:51:12.933Z,100995
2017-12-25T00:53:42.137Z,100982
2017-12-25T00:56:12.182Z,100996
2017-12-25T00:58:41.334Z,100988
2017-12-25T01:01:10.578Z,100992
2017-12-25T01:03:39.744Z,100977
2017-12-25T01:06:08.888Z,100992
2017-12-25T01:08:38.313Z,100987
2017-12-25T01:11:09.096Z,100992
2017-12-25T01:13:38.215Z,100983
2017-12-25T01:16:07.413Z,100981
2017-12-25T01:18:36.512Z,100981
2017-12-25T01:21:05.609Z,100994
2017-12-25T01:23:35.523Z,100988
2017-12-25T01:26:05.416Z,100983
2017-12-25T01:28:34.566Z,100991
2017-12-25T01:31:04.603Z,100994
2017-12-25T01:33:33.729Z,100996
2017-12-25T01:36:03.450Z,100993
2017-12-25T01:38:33.557Z,100985
2017-12-25T01:41:03.478Z,100986
2017-12-25T01:43:33.381Z,100990
2017-12-25T01:46:02.576Z,100987
2017-12-25T01:48:31.691Z,100992
2017-12-25T01:51:00.842Z,100983
2017-12-25T01:53:38.333Z,100986
2017-12-25T01:56:29.061Z,100987
2017-12-25T01:59:02.333Z,100988
2017-12-25T02:04:37.934Z,100990
2017-12-25T02:07:24.955Z,100977
2017-12-25T02:09:54.154Z,100981
2017-12-25T02:12:23.266Z,100978
2017-12-25T02:14:52.726Z,100974
2017-12-25T02:17:22.846Z,100965
2017-12-25T02:19:51.970Z,100956
2017-12-25T02:22:21.074Z,100966
2017-12-25T02:24:51.081Z,100962
2017-12-25T02:27:20.189Z,100958
2017-12-25T02:29:49.312Z,100954
2017-12-25T02:32:19.585Z,100953
2017-12-25T02:34:48.703Z,100937
2017-12-25T02:37:18.084Z,100933
2017-12-25T02:39:47.300Z,100937
2017-12-25T02:42:16.530Z,100936
2017-12-25T02:44:45.694Z,100935
2017-12-25T02:47:15.652Z,100939
2017-12-25T02:49:44.824Z,100945
2017-12-25T02:52:13.969Z,100938
2017-12-25T02:54:43.983Z,100934
2017-12-25T02:57:13.212Z,100938
2017-12-25T02:59:42.425Z,100930
2017-12-25T03:02:12.881Z,100930
2017-12-25T03:04:42.833Z,100934
2017-12-25T03:07:11.970Z,100937
2017-12-25T03:09:41.642Z,100942
2017-12-25T03:12:10.737Z,100937
2017-12-25T03:14:40.738Z,100933
2017-12-25T03:17:11.898Z,100941
2017-12-25T03:19:41.044Z,100944
2017-12-25T03:22:10.992Z,100941
2017-12-25T03:24:40.706Z,100934
2017-12-25T03:27:09.835Z,100933
2017-12-25T03:29:38.985Z,100937
2017-12-25T03:32:08.822Z,100937
2017-12-25T03:34:38.715Z,100924
2017-12-25T03:37:07.868Z,100928
2017-12-25T03:39:37.805Z,100928
2017-12-25T03:42:06.954Z,100920
2017-12-25T03:44:36.113Z,100919
2017-12-25T03:47:06.165Z,100916
2017-12-25T03:49:35.302Z,100913
2017-12-25T03:52:04.409Z,100907
2017-12-25T03:54:33.825Z,100923
2017-12-25T03:57:02.945Z,100912
2017-12-25T03:59:32.041Z,100904
2017-12-25T04:02:03.421Z,100909
2017-12-25T04:04:32.578Z,100911
2017-12-25T04:07:01.685Z,100904
2017-12-25T04:09:33.687Z,100904
2017-12-25T04:12:02.793Z,100911
2017-12-25T04:14:31.906Z,100904
2017-12-25T04:17:02.030Z,100910
2017-12-25T04:19:31.153Z,100894
2017-12-25T04:22:00.250Z,100895
2017-12-25T04:24:29.914Z,100897
2017-12-25T04:26:59.103Z,100887
2017-12-25T04:29:28.216Z,100887
2017-12-25T04:31:58.113Z,100881
2017-12-25T04:34:27.230Z,100881
2017-12-25T04:36:57.137Z,100887
2017-12-25T04:39:27.053Z,100870
2017-12-25T04:41:56.941Z,100877
2017-12-25T04:44:26.041Z,100872
2017-12-25T04:46:55.542Z,100866
2017-12-25T04:49:24.641Z,100868
2017-12-25T04:51:53.736Z,100868
2017-12-25T04:54:22.873Z,100863
2017-12-25T04:56:52.158Z,100859
2017-12-25T04:59:21.275Z,100866
2017-12-25T05:01:50.868Z,100863
2017-12-25T05:04:20.849Z,100861
2017-12-25T05:06:50.019Z,100855
2017-12-25T05:09:19.202Z,100858
2017-12-25T05:11:49.130Z,100865
2017-12-25T05:14:18.311Z,100862
2017-12-25T05:16:47.685Z,100856
2017-12-25T05:19:16.933Z,100851
2017-12-25T05:21:46.119Z,100868
2017-12-25T05:24:15.812Z,100851
2017-12-25T05:26:45.011Z,100858
2017-12-25T05:29:14.222Z,100853
2017-12-25T05:31:43.697Z,100850
2017-12-25T05:34:12.821Z,100855
2017-12-25T05:36:43.016Z,100846
2017-12-25T05:39:12.221Z,100848
2017-12-25T05:41:41.420Z,100838
2017-12-25T05:44:10.582Z,100839
2017-12-25T05:46:40.575Z,100847
2017-12-25T05:49:09.727Z,100834
2017-12-25T05:51:40.472Z,100843
2017-12-25T05:54:11.902Z,100836
2017-12-25T05:56:41.024Z,100835
2017-12-25T05:59:10.889Z,100836
2017-12-25T06:01:41.749Z,100836
2017-12-25T06:04:10.869Z,100829
2017-12-25T06:06:39.989Z,100835
2017-12-25T06:09:09.904Z,100833
2017-12-25T06:11:38.996Z,100834
2017-12-25T06:14:08.115Z,100827
2017-12-25T06:16:37.272Z,100835
2017-12-25T06:19:06.402Z,100827
2017-12-25T06:21:35.721Z,100840
2017-12-25T06:24:05.766Z,100836
2017-12-25T06:26:34.920Z,100837
2017-12-25T06:29:04.047Z,100832
2017-12-25T06:31:34.975Z,100828
2017-12-25T06:34:04.069Z,100832
2017-12-25T06:36:34.759Z,100834
2017-12-25T06:39:04.061Z,100829
2017-12-25T06:41:33.160Z,100821
2017-12-25T06:44:02.258Z,100823
2017-12-25T06:46:31.978Z,100819
2017-12-25T06:49:01.089Z,100820
2017-12-25T06:51:31.300Z,100801
2017-12-25T06:54:01.345Z,100805
2017-12-25T06:56:30.446Z,100816
2017-12-25T06:59:01.116Z,100801
2017-12-25T07:01:31.215Z,100795
2017-12-25T07:04:01.082Z,100792
2017-12-25T07:06:30.225Z,100790
2017-12-25T07:09:00.477Z,100787
2017-12-25T07:11:29.602Z,100780
2017-12-25T07:13:59.503Z,100791
2017-12-25T07:16:29.046Z,100785
2017-12-25T07:18:58.218Z,100782
2017-12-25T07:21:27.331Z,100781
2017-12-25T07:23:56.759Z,100778
2017-12-25T07:26:25.875Z,100777
2017-12-25T07:28:55.199Z,100780
2017-12-25T07:31:25.143Z,100778
2017-12-25T07:33:54.465Z,100775
2017-12-25T07:36:23.586Z,100780
2017-12-25T07:38:52.737Z,100779
2017-12-25T07:41:21.861Z,100778
2017-12-25T07:43:50.979Z,100777
2017-12-25T07:46:21.735Z,100776
2017-12-25T07:48:50.882Z,100776
2017-12-25T07:51:20.032Z,100779
2017-12-25T07:53:49.313Z,100765
2017-12-25T07:56:18.436Z,100765
2017-12-25T07:58:47.637Z,100769
2017-12-25T08:01:17.141Z,100757
2017-12-25T08:03:46.338Z,100762
2017-12-25T08:06:15.534Z,100766
2017-12-25T08:08:45.139Z,100770
2017-12-25T08:11:15.030Z,100761
2017-12-25T08:13:44.249Z,100756
2017-12-25T08:16:13.809Z,100753
2017-12-25T08:18:43.769Z,100745
2017-12-25T08:21:12.975Z,100755
2017-12-25T08:23:42.376Z,100752
2017-12-25T08:26:11.578Z,100760
2017-12-25T08:28:40.654Z,100759
2017-12-25T08:31:10.114Z,100753
2017-12-25T08:33:39.232Z,100768
2017-12-25T08:36:08.350Z,100774
2017-12-25T08:38:37.758Z,100763
2017-12-25T08:41:06.902Z,100764
2017-12-25T08:43:36.030Z,100763
2017-12-25T08:46:05.194Z,100764
2017-12-25T08:48:34.304Z,100769
2017-12-25T08:51:03.571Z,100764
2017-12-25T08:53:33.884Z,100767
2017-12-25T08:56:03.794Z,100775
2017-12-25T08:58:32.914Z,100762
2017-12-25T09:01:02.071Z,100766
2017-12-25T09:03:31.180Z,100772
2017-12-25T09:06:00.767Z,100770
2017-12-25T09:08:29.924Z,100773
2017-12-25T09:10:59.033Z,100776
2017-12-25T09:13:28.158Z,100780
2017-12-25T09:15:58.074Z,100776
2017-12-25T09:18:27.229Z,100782
2017-12-25T09:20:56.337Z,100772
2017-12-25T09:23:26.374Z,100779
2017-12-25T09:25:56.401Z,100789
2017-12-25T09:28:26.306Z,100787
2017-12-25T09:30:55.970Z,100787
2017-12-25T09:33:25.854Z,100790
2017-12-25T09:35:54.987Z,100785
2017-12-25T09:38:24.859Z,100793
2017-12-25T09:40:53.993Z,100802
2017-12-25T09:43:23.129Z,100801
2017-12-25T09:45:52.676Z,100801
2017-12-25T09:48:21.803Z,100788
2017-12-25T09:50:50.925Z,100795
2017-12-25T09:53:20.114Z,100789
2017-12-25T09:55:49.245Z,100781
2017-12-25T09:58:18.379Z,100794
2017-12-25T10:00:47.566Z,100794
2017-12-25T10:03:16.790Z,100782
2017-12-25T10:05:45.991Z,100798
2017-12-25T10:08:15.775Z,100796
2017-12-25T10:10:45.688Z,100792
2017-12-25T10:13:14.888Z,100783
2017-12-25T10:15:44.114Z,100787
2017-12-25T10:18:13.416Z,100781
2017-12-25T10:20:42.617Z,100770
2017-12-25T10:23:12.538Z,100769
2017-12-25T10:25:42.462Z,100766
2017-12-25T10:28:12.040Z,100780
2017-12-25T10:30:41.306Z,100771
2017-12-25T10:33:10.439Z,100760
2017-12-25T10:35:40.348Z,100766
2017-12-25T10:38:10.360Z,100765
2017-12-25T10:40:39.474Z,100762
2017-12-25T10:43:08.593Z,100762
2017-12-25T10:45:39.305Z,100753
2017-12-25T10:48:08.452Z,100761
2017-12-25T10:50:37.580Z,100768
2017-12-25T10:53:07.572Z,100753
2017-12-25T10:55:36.705Z,100754
2017-12-25T10:58:05.889Z,100746
2017-12-25T11:00:42.663Z,100741
2017-12-25T11:03:11.862Z,100743
2017-12-25T11:05:40.992Z,100744
2017-12-25T11:08:10.189Z,100728
2017-12-25T11:10:39.383Z,100734
2017-12-25T11:13:08.511Z,100747
2017-12-25T11:15:37.675Z,100740
2017-12-25T11:18:07.550Z,100735
2017-12-25T11:20:36.645Z,100736
2017-12-25T11:23:05.797Z,100738
2017-12-25T11:25:34.920Z,100734
2017-12-25T11:28:04.032Z,100732
2017-12-25T11:30:33.291Z,100727
2017-12-25T11:33:02.413Z,100728
2017-12-25T11:35:31.534Z,100715
2017-12-25T11:38:00.856Z,100719
2017-12-25T11:40:30.001Z,100717
2017-12-25T11:42:59.913Z,100710
2017-12-25T11:45:29.417Z,100699
2017-12-25T11:47:58.541Z,100698
2017-12-25T11:50:28.440Z,100703
2017-12-25T11:52:57.752Z,100689
2017-12-25T11:55:26.923Z,100687
2017-12-25T11:57:56.113Z,100688
2017-12-25T12:00:25.233Z,100680
2017-12-25T12:02:55.122Z,100672
2017-12-25T12:05:24.294Z,100674
2017-12-25T12:07:53.800Z,100667
2017-12-25T12:10:22.922Z,100677
2017-12-25T12:12:52.070Z,100672
2017-12-25T12:15:22.062Z,100658
2017-12-25T12:17:51.186Z,100652
2017-12-25T12:20:20.386Z,100659
2017-12-25T12:22:49.726Z,100657
2017-12-25T12:25:18.848Z,100655
2017-12-25T12:27:48.007Z,100649
2017-12-25T12:30:17.628Z,100652
2017-12-25T12:32:46.799Z,100654
2017-12-25T12:35:16.770Z,100654
2017-12-25T12:37:46.293Z,100657
2017-12-25T12:40:15.460Z,100649
2017-12-25T12:42:45.627Z,100640
2017-12-25T12:45:14.862Z,100640
2017-12-25T12:47:44.015Z,100637
2017-12-25T12:50:13.995Z,100628
2017-12-25T12:52:43.191Z,100621
2017-12-25T12:55:12.309Z,100627
2017-12-25T12:57:41.459Z,100620
2017-12-25T13:00:13.167Z,100617
2017-12-25T13:02:42.340Z,100614
2017-12-25T13:05:11.564Z,100612
2017-12-25T13:07:41.884Z,100605
2017-12-25T13:10:11.036Z,100611
2017-12-25T13:12:40.196Z,100614
2017-12-25T13:15:09.635Z,100614
2017-12-25T13:17:40.407Z,100599
2017-12-25T13:20:09.580Z,100596
2017-12-25T13:22:39.599Z,100600
2017-12-25T13:25:08.727Z,100593
2017-12-25T13:27:37.863Z,100589
2017-12-25T13:30:08.119Z,100592
2017-12-25T13:32:37.268Z,100587
2017-12-25T13:35:06.392Z,100588
2017-12-25T13:37:35.946Z,100587
2017-12-25T13:40:05.282Z,100590
2017-12-25T13:42:34.620Z,100594
2017-12-25T13:45:04.749Z,100585
2017-12-25T13:47:33.882Z,100584
2017-12-25T13:50:03.028Z,100582
2017-12-25T13:52:32.501Z,100582
2017-12-25T13:55:01.670Z,100585
2017-12-25T13:57:31.806Z,100587
2017-12-25T14:00:01.346Z,100572
2017-12-25T14:02:31.328Z,100580
2017-12-25T14:05:00.499Z,100588
2017-12-25T14:07:31.333Z,100578
2017-12-25T14:10:00.494Z,100583
2017-12-25T14:12:29.609Z,100584
2017-12-25T14:14:58.816Z,100576
2017-12-25T14:17:28.935Z,100570
2017-12-25T14:19:58.074Z,100567
2017-12-25T14:22:27.242Z,100571
2017-12-25T14:24:57.136Z,100577
2017-12-25T14:27:26.854Z,100569
2017-12-25T14:29:57.567Z,100581
2017-12-25T14:32:26.783Z,100576
2017-12-25T14:34:55.942Z,100584
2017-12-25T14:37:25.898Z,100575
2017-12-25T14:39:55.029Z,100581
2017-12-25T14:42:24.193Z,100590
2017-12-25T14:44:53.407Z,100592
2017-12-25T14:47:22.546Z,100581
2017-12-25T14:49:51.650Z,100585
2017-12-25T14:52:21.225Z,100570
2017-12-25T14:54:50.346Z,100578
2017-12-25T14:57:19.532Z,100569
2017-12-25T14:59:49.566Z,100569
2017-12-25T15:02:18.844Z,100575
2017-12-25T15:04:47.978Z,100570
2017-12-25T15:07:17.414Z,100561
2017-12-25T15:09:47.446Z,100562
2017-12-25T15:12:17.465Z,100566
2017-12-25T15:14:46.954Z,100566
2017-12-25T15:17:16.188Z,100561
2017-12-25T15:19:46.225Z,100555
2017-12-25T15:22:16.278Z,100569
2017-12-25T15:24:45.489Z,100576
2017-12-25T15:27:15.433Z,100571
2017-12-25T15:29:44.957Z,100566
2017-12-25T15:32:14.143Z,100569
2017-12-25T15:34:43.349Z,100567
2017-12-25T15:37:13.270Z,100564
2017-12-25T15:39:42.470Z,100557
2017-12-25T15:42:12.381Z,100552
2017-12-25T15:44:42.823Z,100552
2017-12-25T15:47:12.073Z,100548
2017-12-25T15:49:41.215Z,100549
2017-12-25T15:52:10.594Z,100551
2017-12-25T15:54:40.475Z,100551
2017-12-25T15:57:09.606Z,100549
2017-12-25T15:59:38.767Z,100556
2017-12-25T16:02:07.863Z,100541
2017-12-25T16:04:36.954Z,100540
2017-12-25T16:07:07.278Z,100537
2017-12-25T16:09:36.486Z,100532
2017-12-25T16:12:05.593Z,100531
2017-12-25T16:14:35.534Z,100533
2017-12-25T16:17:05.414Z,100530
2017-12-25T16:19:34.532Z,100529
2017-12-25T16:22:04.886Z,100544
2017-12-25T16:24:34.006Z,100531
2017-12-25T16:27:03.109Z,100520
2017-12-25T16:29:32.281Z,100507
2017-12-25T16:32:01.403Z,100514
2017-12-25T16:34:30.508Z,100504
2017-12-25T16:36:59.671Z,100502
2017-12-25T16:39:29.541Z,100500
2017-12-25T16:41:58.716Z,100505
2017-12-25T16:44:27.890Z,100510
2017-12-25T16:46:57.011Z,100512
2017-12-25T16:49:26.110Z,100505
2017-12-25T16:51:55.274Z,100505
2017-12-25T16:54:24.381Z,100509
2017-12-25T16:56:53.491Z,100504
2017-12-25T16:59:22.666Z,100478
2017-12-25T17:01:51.814Z,100485
2017-12-25T17:04:20.993Z,100489
2017-12-25T17:06:50.958Z,100499
2017-12-25T17:09:20.130Z,100486
2017-12-25T17:11:49.312Z,100499
2017-12-25T17:14:18.610Z,100488
2017-12-25T17:16:47.763Z,100474
2017-12-25T17:19:17.816Z,100487
2017-12-25T17:21:47.340Z,100485
2017-12-25T17:24:16.481Z,100487
2017-12-25T17:26:45.605Z,100493
2017-12-25T17:29:15.588Z,100487
2017-12-25T17:31:44.845Z,100476
2017-12-25T17:34:13.995Z,100475
2017-12-25T17:36:43.614Z,100483
2017-12-25T17:39:12.820Z,100480
2017-12-25T17:41:42.220Z,100473
2017-12-25T17:44:11.448Z,100473
2017-12-25T17:46:41.655Z,100473
2017-12-25T17:49:10.809Z,100464
2017-12-25T17:51:40.010Z,100467
2017-12-25T17:54:10.148Z,100459
2017-12-25T17:56:39.318Z,100464
2017-12-25T17:59:09.708Z,100467
2017-12-25T18:01:38.879Z,100467
2017-12-25T18:04:08.935Z,100460
2017-12-25T18:06:38.522Z,100458
2017-12-25T18:09:07.847Z,100457
2017-12-25T18:11:38.193Z,100459
2017-12-25T18:14:08.143Z,100450
2017-12-25T18:16:37.246Z,100431
2017-12-25T18:19:06.366Z,100442
2017-12-25T18:21:35.609Z,100441
2017-12-25T18:24:04.721Z,100431
2017-12-25T18:26:33.835Z,100429
2017-12-25T18:29:04.243Z,100433
2017-12-25T18:31:33.639Z,100424
2017-12-25T18:34:02.814Z,100429
2017-12-25T18:36:32.579Z,100425
2017-12-25T18:39:01.671Z,100422
2017-12-25T18:41:30.780Z,100417
2017-12-25T18:44:00.054Z,100417
2017-12-25T18:46:29.153Z,100417
2017-12-25T18:48:58.258Z,100415
2017-12-25T18:51:28.355Z,100412
2017-12-25T18:53:57.465Z,100412
2017-12-25T18:56:26.567Z,100411
2017-12-25T18:58:55.729Z,100421
2017-12-25T19:01:24.824Z,100409
2017-12-25T19:03:53.969Z,100387
2017-12-25T19:06:24.681Z,100383
2017-12-25T19:08:53.795Z,100365
2017-12-25T19:11:22.914Z,100361
2017-12-25T19:13:53.132Z,100366
2017-12-25T19:16:22.230Z,100372
2017-12-25T19:18:51.318Z,100375
2017-12-25T19:21:20.470Z,100377
2017-12-25T19:23:49.565Z,100363
2017-12-25T19:26:18.710Z,100366
2017-12-25T19:28:49.294Z,100365
2017-12-25T19:31:18.825Z,100365
2017-12-25T19:33:48.072Z,100358
2017-12-25T19:36:18.120Z,100358
2017-12-25T19:38:47.321Z,100349
2017-12-25T19:41:16.584Z,100343
2017-12-25T19:43:46.576Z,100336
2017-12-25T19:46:16.520Z,100331
2017-12-25T19:48:45.741Z,100326
2017-12-25T19:51:15.761Z,100334
2017-12-25T19:53:44.908Z,100323
2017-12-25T19:56:14.890Z,100318
2017-12-25T19:58:44.174Z,100315
2017-12-25T20:01:13.445Z,100313
2017-12-25T20:03:43.581Z,100311
2017-12-25T20:06:15.149Z,100306
2017-12-25T20:08:44.281Z,100296
2017-12-25T20:11:13.530Z,100294
2017-12-25T20:13:42.706Z,100285
2017-12-25T20:16:11.877Z,100284
2017-12-25T20:18:41.007Z,100285
2017-12-25T20:21:10.166Z,100294
2017-12-25T20:23:40.089Z,100280
2017-12-25T20:26:09.998Z,100295
2017-12-25T20:28:40.226Z,100294
2017-12-25T20:31:09.346Z,100287
2017-12-25T20:33:38.486Z,100282
2017-12-25T20:36:08.032Z,100284
2017-12-25T20:38:37.129Z,100280
2017-12-25T20:41:06.264Z,100279
2017-12-25T20:43:35.396Z,100273
2017-12-25T20:46:04.555Z,100276
2017-12-25T20:48:33.676Z,100272
2017-12-25T20:51:02.839Z,100271
2017-12-25T20:53:32.717Z,100268
2017-12-25T20:56:01.848Z,100270
2017-12-25T20:58:31.003Z,100255
2017-12-25T21:01:00.107Z,100243
2017-12-25T21:03:30.007Z,100247
2017-12-25T21:06:00.743Z,100240
2017-12-25T21:08:29.888Z,100232
2017-12-25T21:10:59.038Z,100237
2017-12-25T21:13:28.486Z,100233
2017-12-25T21:15:58.245Z,100233
2017-12-25T21:18:28.363Z,100230
2017-12-25T21:20:59.184Z,100225
2017-12-25T21:23:28.492Z,100219
2017-12-25T21:25:58.147Z,100214
2017-12-25T21:28:28.154Z,100211
2017-12-25T21:30:57.532Z,100208
2017-12-25T21:33:26.939Z,100206
2017-12-25T21:35:56.302Z,100211
2017-12-25T21:38:25.473Z,100192
2017-12-25T21:40:54.797Z,100192
2017-12-25T21:43:24.959Z,100198
2017-12-25T21:45:54.220Z,100198
2017-12-25T21:48:23.522Z,100190
2017-12-25T21:50:52.850Z,100178
2017-12-25T21:53:22.187Z,100175
2017-12-25T21:55:51.460Z,100166
2017-12-25T21:58:20.827Z,100156
2017-12-25T22:00:50.165Z,100152
2017-12-25T22:03:20.302Z,100139
2017-12-25T22:05:50.859Z,100145
2017-12-25T22:08:19.977Z,100129
2017-12-25T22:10:49.877Z,100133
2017-12-25T22:13:19.858Z,100137
2017-12-25T22:15:49.001Z,100135
2017-12-25T22:18:18.201Z,100146
2017-12-25T22:20:48.174Z,100146
2017-12-25T22:23:17.364Z,100133
2017-12-25T22:25:46.615Z,100143
2017-12-25T22:28:17.890Z,100126
2017-12-25T22:30:47.088Z,100124
2017-12-25T22:33:16.261Z,100124
2017-12-25T22:35:45.571Z,100120
2017-12-25T22:38:15.660Z,100113
2017-12-25T22:40:45.787Z,100110
2017-12-25T22:43:15.333Z,100116
2017-12-25T22:45:44.563Z,100111
2017-12-25T22:48:15.105Z,100103
2017-12-25T22:50:45.463Z,100083
2017-12-25T22:53:14.995Z,100081
2017-12-25T22:55:44.402Z,100081
2017-12-25T22:58:14.317Z,100074
2017-12-25T23:00:43.525Z,100054
2017-12-25T23:03:12.743Z,100075
2017-12-25T23:05:41.993Z,100069
2017-12-25T23:08:11.181Z,100068
2017-12-25T23:10:40.297Z,100071
2017-12-25T23:13:09.452Z,100058
2017-12-25T23:15:38.565Z,100069
2017-12-25T23:18:07.773Z,100061
2017-12-25T23:20:38.199Z,100058
2017-12-25T23:23:07.333Z,100051
2017-12-25T23:25:37.272Z,100047
2017-12-25T23:28:07.742Z,100044
2017-12-25T23:30:37.135Z,100032
2017-12-25T23:33:07.155Z,100025
2017-12-25T23:35:37.095Z,100025
2017-12-25T23:38:07.001Z,100021
2017-12-25T23:40:36.175Z,100022
2017-12-25T23:43:05.384Z,100013
2017-12-25T23:45:34.493Z,100017
2017-12-25T23:48:03.616Z,100023
2017-12-25T23:50:32.786Z,100017
2017-12-25T23:53:01.887Z,100012
2017-12-25T23:55:30.988Z,100005
2017-12-25T23:58:00.201Z,99995
